createdAt,value
2017-08-06T00:01:01.449Z,14.3
2017-08-06T00:02:11.722Z,14.31
2017-08-06T00:03:21.994Z,14.36
2017-08-06T00:04:31.635Z,14.25
2017-08-06T00:05:41.909Z,14.26
2017-08-06T00:06:51.865Z,14.25
2017-08-06T00:08:02.142Z,14.23
2017-08-06T00:09:12.416Z,14.28
2017-08-06T00:10:22.692Z,14.23
2017-08-06T00:11:32.963Z,14.28
2017-08-06T00:12:42.609Z,14.26
2017-08-06T00:13:52.888Z,14.25
2017-08-06T00:15:02.846Z,14.25
2017-08-06T00:16:12.175Z,14.25
2017-08-06T00:17:22.463Z,14.26
2017-08-06T00:18:32.108Z,14.28
2017-08-06T00:19:42.386Z,14.28
2017-08-06T00:20:52.653Z,14.28
2017-08-06T00:22:02.616Z,14.23
2017-08-06T00:23:12.573Z,14.3
2017-08-06T00:24:22.840Z,14.34
2017-08-06T00:25:32.800Z,14.33
2017-08-06T00:26:42.761Z,14.33
2017-08-06T00:27:52.717Z,14.4
2017-08-06T00:29:02.992Z,14.33
2017-08-06T00:30:13.266Z,14.41
2017-08-06T00:31:23.542Z,14.37
2017-08-06T00:32:33.823Z,14.33
2017-08-06T00:33:43.466Z,14.3
2017-08-06T00:34:53.741Z,14.3
2017-08-06T00:36:04.014Z,14.36
2017-08-06T00:37:14.288Z,14.4
2017-08-06T00:38:24.562Z,14.31
2017-08-06T00:39:34.857Z,14.41
2017-08-06T00:40:45.127Z,14.33
2017-08-06T00:41:55.407Z,14.28
2017-08-06T00:43:05.675Z,14.41
2017-08-06T00:44:15.632Z,14.48
2017-08-06T00:45:25.908Z,14.4
2017-08-06T00:46:36.183Z,14.34
2017-08-06T00:47:46.139Z,14.36
2017-08-06T00:48:56.409Z,14.38
2017-08-06T00:50:06.373Z,14.4
2017-08-06T00:51:16.649Z,14.4
2017-08-06T00:52:26.917Z,14.3
2017-08-06T00:53:36.876Z,14.3
2017-08-06T00:54:46.840Z,14.41
2017-08-06T00:55:57.114Z,14.28
2017-08-06T00:57:07.086Z,14.34
2017-08-06T00:58:17.043Z,14.23
2017-08-06T00:59:27.320Z,14.23
2017-08-06T01:00:37.278Z,14.2
2017-08-06T01:01:47.553Z,14.23
2017-08-06T01:02:57.830Z,14.22
2017-08-06T01:04:08.103Z,14.19
2017-08-06T01:05:18.382Z,14.19
2017-08-06T01:06:28.653Z,14.2
2017-08-06T01:07:38.923Z,14.08
2017-08-06T01:08:49.191Z,14.19
2017-08-06T01:09:58.853Z,14.05
2017-08-06T01:11:09.133Z,14.18
2017-08-06T01:12:19.410Z,14.07
2017-08-06T01:13:29.683Z,14.13
2017-08-06T01:14:39.889Z,14.07
2017-08-06T01:15:50.161Z,14.08
2017-08-06T01:17:00.443Z,14.03
2017-08-06T01:18:10.100Z,14.12
2017-08-06T01:19:20.069Z,14.08
2017-08-06T01:20:30.350Z,14.13
2017-08-06T01:21:40.322Z,14.11
2017-08-06T01:22:50.596Z,14.12
2017-08-06T01:24:00.562Z,14.11
2017-08-06T01:25:10.836Z,14.13
2017-08-06T01:26:21.113Z,14.11
2017-08-06T01:27:30.761Z,14.08
2017-08-06T01:28:40.716Z,14.05
2017-08-06T01:29:50.992Z,14.13
2017-08-06T01:31:00.950Z,14.05
2017-08-06T01:32:11.224Z,14.15
2017-08-06T01:33:21.493Z,14.07
2017-08-06T01:34:31.762Z,14.07
2017-08-06T01:35:42.036Z,14.08
2017-08-06T01:36:52.307Z,14.12
2017-08-06T01:38:02.270Z,14.07
2017-08-06T01:39:12.541Z,14.13
2017-08-06T01:40:22.493Z,14.13
2017-08-06T01:41:32.763Z,14.12
2017-08-06T01:42:42.723Z,14.05
2017-08-06T01:43:52.993Z,14.11
2017-08-06T01:45:03.261Z,14.08
2017-08-06T01:46:13.218Z,14.12
2017-08-06T01:47:23.485Z,14.11
2017-08-06T01:48:33.756Z,14.07
2017-08-06T01:49:43.404Z,14.13
2017-08-06T01:50:53.674Z,14.11
2017-08-06T01:52:03.638Z,14.12
2017-08-06T01:53:13.605Z,14.08
2017-08-06T01:54:23.561Z,14.07
2017-08-06T01:55:33.520Z,14.08
2017-08-06T01:56:43.489Z,14.11
2017-08-06T01:57:53.761Z,14.13
2017-08-06T01:59:04.030Z,14.11
2017-08-06T02:00:14.301Z,14.07
2017-08-06T02:01:24.264Z,14.11
2017-08-06T02:02:33.902Z,14.13
2017-08-06T02:03:44.172Z,14.05
2017-08-06T02:04:54.442Z,14.12
2017-08-06T02:06:04.740Z,14.05
2017-08-06T02:07:15.225Z,14.12
2017-08-06T02:08:25.184Z,14.12
2017-08-06T02:09:35.470Z,14.13
2017-08-06T02:10:45.748Z,14.05
2017-08-06T02:11:56.020Z,14.12
2017-08-06T02:13:08.596Z,14.13
2017-08-06T02:14:18.871Z,14.12
2017-08-06T02:15:29.144Z,14.12
2017-08-06T02:16:39.413Z,14.07
2017-08-06T02:17:49.686Z,14.12
2017-08-06T02:19:01.965Z,14.12
2017-08-06T02:20:12.243Z,14.07
2017-08-06T02:21:22.517Z,14.15
2017-08-06T02:22:32.783Z,14.12
2017-08-06T02:23:42.738Z,14.13
2017-08-06T02:24:53.260Z,14.15
2017-08-06T02:26:03.541Z,14.19
2017-08-06T02:27:13.505Z,14.19
2017-08-06T02:28:23.463Z,14.13
2017-08-06T02:29:33.755Z,14.26
2017-08-06T02:30:43.712Z,14.22
2017-08-06T02:31:53.986Z,14.26
2017-08-06T02:33:03.941Z,14.22
2017-08-06T02:34:14.236Z,14.26
2017-08-06T02:35:24.528Z,14.23
2017-08-06T02:36:34.820Z,14.2
2017-08-06T02:37:45.094Z,14.19
2017-08-06T02:38:55.373Z,14.19
2017-08-06T02:40:05.647Z,14.12
2017-08-06T02:41:14.981Z,14.05
2017-08-06T02:42:25.255Z,14.11
2017-08-06T02:43:35.526Z,14.16
2017-08-06T02:44:45.820Z,14.08
2017-08-06T02:45:56.093Z,14.07
2017-08-06T02:47:06.369Z,14.11
2017-08-06T02:48:16.639Z,14.11
2017-08-06T02:49:26.307Z,14.12
2017-08-06T02:50:36.284Z,14.18
2017-08-06T02:51:46.555Z,14.13
2017-08-06T02:52:56.846Z,14.19
2017-08-06T02:54:07.125Z,14.19
2017-08-06T02:55:17.405Z,14.16
2017-08-06T02:56:27.681Z,14.11
2017-08-06T02:57:37.962Z,14.28
2017-08-06T02:58:48.241Z,14.3
2017-08-06T02:59:58.524Z,14.23
2017-08-06T03:01:08.487Z,14.16
2017-08-06T03:02:18.761Z,14.18
2017-08-06T03:03:29.030Z,14.16
2017-08-06T03:04:39.303Z,14.13
2017-08-06T03:05:49.570Z,14.16
2017-08-06T03:06:59.840Z,14.19
2017-08-06T03:08:10.111Z,14.08
2017-08-06T03:09:20.072Z,14.15
2017-08-06T03:10:30.352Z,14.19
2017-08-06T03:11:40.639Z,14.13
2017-08-06T03:12:50.917Z,14.11
2017-08-06T03:14:01.190Z,14.15
2017-08-06T03:15:11.460Z,14.12
2017-08-06T03:16:21.439Z,14.08
2017-08-06T03:17:31.709Z,14.13
2017-08-06T03:18:41.662Z,14.08
2017-08-06T03:19:51.618Z,14.04
2017-08-06T03:21:01.890Z,14.08
2017-08-06T03:22:12.171Z,14.08
2017-08-06T03:23:22.136Z,14.12
2017-08-06T03:24:32.108Z,14.15
2017-08-06T03:25:42.381Z,14.08
2017-08-06T03:26:52.338Z,14.08
2017-08-06T03:28:02.605Z,14.13
2017-08-06T03:29:12.562Z,14.13
2017-08-06T03:30:22.838Z,14.12
2017-08-06T03:31:33.112Z,14.16
2017-08-06T03:32:43.385Z,14.08
2017-08-06T03:33:53.666Z,14.07
2017-08-06T03:35:03.943Z,14.11
2017-08-06T03:36:13.903Z,14.11
2017-08-06T03:37:24.172Z,14.05
2017-08-06T03:38:34.450Z,14.08
2017-08-06T03:39:44.727Z,14.07
2017-08-06T03:40:54.997Z,14.08
2017-08-06T03:42:05.269Z,14.03
2017-08-06T03:43:14.914Z,14.05
2017-08-06T03:44:25.186Z,14.08
2017-08-06T03:45:35.149Z,14.16
2017-08-06T03:46:44.789Z,14.12
2017-08-06T03:47:55.062Z,14.19
2017-08-06T03:49:05.339Z,14.12
2017-08-06T03:50:14.979Z,14.11
2017-08-06T03:51:25.249Z,14.08
2017-08-06T03:52:35.525Z,14.07
2017-08-06T03:53:45.793Z,14.07
2017-08-06T03:54:56.064Z,14.08
2017-08-06T03:56:06.031Z,14.13
2017-08-06T03:57:16.300Z,14.12
2017-08-06T03:58:26.573Z,14.13
2017-08-06T03:59:36.865Z,14.11
2017-08-06T04:00:47.135Z,14.08
2017-08-06T04:01:57.408Z,14.07
2017-08-06T04:03:07.360Z,14.13
2017-08-06T04:04:17.634Z,14.12
2017-08-06T04:05:27.609Z,14.12
2017-08-06T04:06:37.882Z,14.11
2017-08-06T04:07:47.843Z,14.08
2017-08-06T04:08:58.122Z,14.07
2017-08-06T04:10:08.082Z,14.03
2017-08-06T04:11:18.361Z,14.05
2017-08-06T04:12:28.636Z,14.18
2017-08-06T04:13:38.913Z,14.16
2017-08-06T04:14:49.190Z,14.18
2017-08-06T04:15:59.459Z,14.11
2017-08-06T04:17:09.741Z,14.15
2017-08-06T04:18:19.701Z,14.16
2017-08-06T04:19:29.979Z,14.25
2017-08-06T04:20:40.252Z,14.23
2017-08-06T04:21:50.218Z,14.23
2017-08-06T04:23:00.491Z,14.25
2017-08-06T04:24:10.453Z,14.25
2017-08-06T04:25:20.424Z,14.26
2017-08-06T04:26:30.384Z,14.23
2017-08-06T04:27:40.650Z,14.3
2017-08-06T04:28:50.293Z,14.28
2017-08-06T04:30:00.572Z,14.25
2017-08-06T04:31:10.535Z,14.38
2017-08-06T04:32:20.808Z,14.38
2017-08-06T04:33:31.078Z,14.34
2017-08-06T04:34:41.351Z,14.4
2017-08-06T04:35:51.623Z,14.3
2017-08-06T04:37:01.264Z,14.33
2017-08-06T04:38:11.221Z,14.44
2017-08-06T04:39:21.491Z,14.38
2017-08-06T04:40:31.753Z,14.45
2017-08-06T04:41:41.396Z,14.37
2017-08-06T04:42:51.667Z,14.33
2017-08-06T04:44:01.937Z,14.37
2017-08-06T04:45:12.214Z,14.44
2017-08-06T04:46:22.485Z,14.4
2017-08-06T04:47:32.757Z,14.44
2017-08-06T04:48:42.716Z,14.41
2017-08-06T04:49:52.999Z,14.37
2017-08-06T04:51:03.271Z,14.4
2017-08-06T04:52:13.549Z,14.48
2017-08-06T04:53:23.513Z,14.44
2017-08-06T04:54:33.810Z,14.43
2017-08-06T04:55:44.086Z,14.51
2017-08-06T04:56:54.357Z,14.49
2017-08-06T04:58:04.630Z,14.53
2017-08-06T04:59:14.584Z,14.49
2017-08-06T05:00:24.542Z,14.51
2017-08-06T05:01:34.501Z,14.53
2017-08-06T05:02:44.148Z,14.67
2017-08-06T05:03:54.425Z,14.59
2017-08-06T05:05:04.389Z,14.58
2017-08-06T05:06:13.728Z,14.59
2017-08-06T05:07:24.006Z,14.7
2017-08-06T05:08:33.979Z,14.62
2017-08-06T05:09:44.251Z,14.63
2017-08-06T05:10:54.523Z,14.74
2017-08-06T05:12:04.478Z,14.78
2017-08-06T05:13:14.434Z,14.74
2017-08-06T05:14:24.395Z,14.7
2017-08-06T05:15:34.351Z,14.79
2017-08-06T05:16:44.312Z,14.79
2017-08-06T05:17:54.582Z,14.85
2017-08-06T05:19:04.857Z,14.79
2017-08-06T05:20:14.821Z,14.9
2017-08-06T05:21:25.097Z,14.93
2017-08-06T05:22:35.374Z,14.89
2017-08-06T05:23:45.337Z,14.9
2017-08-06T05:24:55.302Z,14.92
2017-08-06T05:26:05.575Z,14.82
2017-08-06T05:27:15.532Z,14.86
2017-08-06T05:28:25.806Z,14.94
2017-08-06T05:29:36.073Z,14.97
2017-08-06T05:30:46.345Z,15.02
2017-08-06T05:31:56.302Z,14.92
2017-08-06T05:33:06.576Z,14.96
2017-08-06T05:34:16.853Z,15.08
2017-08-06T05:35:26.819Z,15.04
2017-08-06T05:36:37.106Z,14.99
2017-08-06T05:37:47.067Z,15.05
2017-08-06T05:38:57.347Z,15.08
2017-08-06T05:40:07.313Z,15.11
2017-08-06T05:41:17.272Z,15.12
2017-08-06T05:42:27.550Z,15.08
2017-08-06T05:43:37.512Z,15.08
2017-08-06T05:44:47.480Z,15.17
2017-08-06T05:45:57.757Z,15.22
2017-08-06T05:47:08.034Z,15.14
2017-08-06T05:48:18.308Z,15.22
2017-08-06T05:49:28.580Z,15.1
2017-08-06T05:50:38.869Z,15.12
2017-08-06T05:51:49.138Z,15.23
2017-08-06T05:52:59.410Z,15.23
2017-08-06T05:54:09.684Z,15.22
2017-08-06T05:55:19.641Z,15.18
2017-08-06T05:56:29.912Z,15.23
2017-08-06T05:57:40.183Z,15.19
2017-08-06T05:58:50.453Z,15.18
2017-08-06T06:00:00.414Z,15.25
2017-08-06T06:01:10.073Z,15.33
2017-08-06T06:02:20.035Z,15.23
2017-08-06T06:03:29.999Z,15.12
2017-08-06T06:04:40.272Z,15.15
2017-08-06T06:05:50.542Z,15.18
2017-08-06T06:07:00.813Z,15.15
2017-08-06T06:08:10.457Z,15.18
2017-08-06T06:09:20.102Z,15.18
2017-08-06T06:10:30.376Z,15.18
2017-08-06T06:11:40.655Z,15.12
2017-08-06T06:12:50.612Z,15.1
2017-08-06T06:14:00.883Z,15.05
2017-08-06T06:15:11.160Z,15.08
2017-08-06T06:16:21.431Z,15.02
2017-08-06T06:17:31.706Z,15.05
2017-08-06T06:18:41.979Z,14.97
2017-08-06T06:19:51.942Z,14.97
2017-08-06T06:21:01.904Z,14.97
2017-08-06T06:22:11.865Z,14.96
2017-08-06T06:23:22.155Z,14.94
2017-08-06T06:24:32.428Z,14.93
2017-08-06T06:25:42.696Z,14.94
2017-08-06T06:26:52.987Z,14.89
2017-08-06T06:28:03.268Z,14.93
2017-08-06T06:29:12.916Z,14.93
2017-08-06T06:30:23.200Z,14.86
2017-08-06T06:31:33.168Z,14.89
2017-08-06T06:32:43.132Z,14.89
2017-08-06T06:33:53.405Z,14.85
2017-08-06T06:35:03.679Z,14.81
2017-08-06T06:36:13.646Z,14.79
2017-08-06T06:37:23.920Z,14.85
2017-08-06T06:38:34.186Z,14.82
2017-08-06T06:39:44.461Z,14.9
2017-08-06T06:40:54.735Z,14.87
2017-08-06T06:42:04.700Z,14.93
2017-08-06T06:43:14.980Z,14.9
2017-08-06T06:44:25.251Z,14.9
2017-08-06T06:45:35.206Z,14.9
2017-08-06T06:46:45.498Z,14.92
2017-08-06T06:47:55.766Z,14.9
2017-08-06T06:49:05.413Z,14.92
2017-08-06T06:50:15.376Z,14.94
2017-08-06T06:51:25.670Z,14.92
2017-08-06T06:52:35.940Z,14.82
2017-08-06T06:53:46.220Z,14.93
2017-08-06T06:54:56.523Z,14.96
2017-08-06T06:56:06.489Z,14.94
2017-08-06T06:57:16.778Z,14.93
2017-08-06T06:58:26.737Z,14.94
2017-08-06T06:59:36.701Z,14.87
2017-08-06T07:00:46.665Z,14.93
2017-08-06T07:01:56.937Z,14.92
2017-08-06T07:03:07.211Z,14.94
2017-08-06T07:04:16.865Z,14.94
2017-08-06T07:05:27.135Z,14.94
2017-08-06T07:06:37.408Z,14.93
2017-08-06T07:07:46.739Z,14.97
2017-08-06T07:08:57.011Z,14.99
2017-08-06T07:10:06.982Z,15.02
2017-08-06T07:11:16.627Z,15.02
2017-08-06T07:12:26.900Z,15.07
2017-08-06T07:13:37.171Z,15.08
2017-08-06T07:14:47.132Z,15.11
2017-08-06T07:15:57.402Z,15.15
2017-08-06T07:17:07.682Z,15.15
2017-08-06T07:18:17.953Z,15.11
2017-08-06T07:19:28.230Z,15.18
2017-08-06T07:20:38.185Z,15.23
2017-08-06T07:21:48.458Z,15.19
2017-08-06T07:22:58.727Z,15.23
2017-08-06T07:24:08.994Z,15.27
2017-08-06T07:25:19.275Z,15.27
2017-08-06T07:26:29.546Z,15.33
2017-08-06T07:27:39.819Z,15.41
2017-08-06T07:28:49.779Z,15.39
2017-08-06T07:30:00.062Z,15.51
2017-08-06T07:31:10.337Z,15.5
2017-08-06T07:32:19.680Z,15.57
2017-08-06T07:33:29.962Z,15.57
2017-08-06T07:34:40.235Z,15.67
2017-08-06T07:35:50.510Z,15.72
2017-08-06T07:37:00.467Z,15.76
2017-08-06T07:38:10.112Z,15.84
2017-08-06T07:39:20.383Z,15.85
2017-08-06T07:40:30.350Z,15.83
2017-08-06T07:41:40.622Z,15.88
2017-08-06T07:42:50.893Z,15.88
2017-08-06T07:44:01.165Z,15.94
2017-08-06T07:45:11.451Z,16.06
2017-08-06T07:46:21.742Z,16.12
2017-08-06T07:47:32.026Z,16.06
2017-08-06T07:48:42.303Z,16.18
2017-08-06T07:49:52.258Z,16.24
2017-08-06T07:51:02.531Z,16.28
2017-08-06T07:52:12.802Z,16.25
2017-08-06T07:53:22.775Z,16.39
2017-08-06T07:54:32.737Z,16.4
2017-08-06T07:55:43.007Z,16.4
2017-08-06T07:56:53.281Z,16.47
2017-08-06T07:58:03.551Z,16.59
2017-08-06T07:59:13.519Z,16.57
2017-08-06T08:00:23.798Z,16.55
2017-08-06T08:01:34.074Z,16.59
2017-08-06T08:02:44.346Z,16.62
2017-08-06T08:03:54.620Z,16.5
2017-08-06T08:05:04.899Z,16.61
2017-08-06T08:06:15.173Z,16.64
2017-08-06T08:07:25.132Z,16.58
2017-08-06T08:08:35.409Z,16.55
2017-08-06T08:09:45.693Z,16.51
2017-08-06T08:10:55.967Z,16.49
2017-08-06T08:12:06.240Z,16.44
2017-08-06T08:13:16.520Z,16.49
2017-08-06T08:14:26.795Z,16.5
2017-08-06T08:15:37.079Z,16.49
2017-08-06T08:16:46.722Z,16.55
2017-08-06T08:17:56.689Z,16.54
2017-08-06T08:19:06.966Z,16.59
2017-08-06T08:20:16.929Z,16.59
2017-08-06T08:21:27.202Z,16.5
2017-08-06T08:22:37.477Z,16.54
2017-08-06T08:23:47.752Z,16.66
2017-08-06T08:24:57.707Z,16.65
2017-08-06T08:26:07.666Z,16.84
2017-08-06T08:27:17.937Z,16.68
2017-08-06T08:28:28.206Z,16.84
2017-08-06T08:29:38.477Z,16.92
2017-08-06T08:30:48.436Z,17.01
2017-08-06T08:31:58.401Z,17.09
2017-08-06T08:33:08.683Z,17.16
2017-08-06T08:34:18.966Z,17.19
2017-08-06T08:35:29.242Z,17.28
2017-08-06T08:36:39.208Z,17.32
2017-08-06T08:37:49.176Z,17.44
2017-08-06T08:38:59.454Z,17.42
2017-08-06T08:40:09.736Z,17.5
2017-08-06T08:41:20.006Z,17.53
2017-08-06T08:42:30.282Z,17.68
2017-08-06T08:43:40.557Z,17.71
2017-08-06T08:44:50.521Z,17.76
2017-08-06T08:46:00.805Z,17.91
2017-08-06T08:47:10.449Z,17.95
2017-08-06T08:48:20.753Z,18.05
2017-08-06T08:49:30.715Z,18.11
2017-08-06T08:50:40.674Z,18.18
2017-08-06T08:51:50.946Z,18.3
2017-08-06T08:53:01.216Z,18.27
2017-08-06T08:54:10.545Z,18.43
2017-08-06T08:55:20.822Z,18.46
2017-08-06T08:56:30.801Z,18.46
2017-08-06T08:57:40.787Z,18.46
2017-08-06T08:58:50.751Z,18.61
2017-08-06T09:00:01.030Z,18.55
2017-08-06T09:01:10.678Z,18.63
2017-08-06T09:02:20.957Z,18.67
2017-08-06T09:03:31.235Z,18.7
2017-08-06T09:04:41.519Z,18.71
2017-08-06T09:05:51.796Z,18.61
2017-08-06T09:07:02.068Z,18.7
2017-08-06T09:08:12.350Z,18.67
2017-08-06T09:09:21.997Z,18.68
2017-08-06T09:10:32.265Z,18.68
2017-08-06T09:11:42.225Z,18.67
2017-08-06T09:12:52.508Z,18.57
2017-08-06T09:14:02.165Z,18.66
2017-08-06T09:15:12.441Z,18.66
2017-08-06T09:16:22.089Z,18.6
2017-08-06T09:17:32.364Z,18.48
2017-08-06T09:18:42.646Z,18.42
2017-08-06T09:19:52.920Z,18.53
2017-08-06T09:21:02.564Z,18.39
2017-08-06T09:22:12.840Z,18.33
2017-08-06T09:23:23.120Z,18.42
2017-08-06T09:24:33.092Z,18.3
2017-08-06T09:25:42.744Z,18.3
2017-08-06T09:26:52.709Z,18.45
2017-08-06T09:28:02.986Z,18.33
2017-08-06T09:29:13.261Z,18.27
2017-08-06T09:30:22.905Z,18.26
2017-08-06T09:31:32.555Z,18.27
2017-08-06T09:32:42.518Z,18.16
2017-08-06T09:33:52.802Z,18.02
2017-08-06T09:35:03.079Z,18.09
2017-08-06T09:36:13.358Z,18.12
2017-08-06T09:37:23.636Z,18.12
2017-08-06T09:38:33.601Z,18.16
2017-08-06T09:39:43.877Z,18.24
2017-08-06T09:40:53.538Z,18.15
2017-08-06T09:42:03.815Z,18.13
2017-08-06T09:43:13.778Z,18.02
2017-08-06T09:44:24.050Z,18.03
2017-08-06T09:45:34.327Z,18.11
2017-08-06T09:46:44.599Z,18.09
2017-08-06T09:47:53.927Z,18.06
2017-08-06T09:49:04.198Z,18.06
2017-08-06T09:50:14.480Z,18.16
2017-08-06T09:51:24.184Z,18.09
2017-08-06T09:52:34.461Z,18.21
2017-08-06T09:53:44.742Z,18.15
2017-08-06T09:54:54.721Z,18.36
2017-08-06T09:56:04.996Z,18.27
2017-08-06T09:57:14.968Z,18.52
2017-08-06T09:58:25.244Z,18.48
2017-08-06T09:59:35.527Z,18.53
2017-08-06T10:00:45.800Z,18.63
2017-08-06T10:01:55.764Z,18.61
2017-08-06T10:03:06.042Z,18.7
2017-08-06T10:04:16.011Z,18.68
2017-08-06T10:05:26.285Z,18.79
2017-08-06T10:06:36.246Z,18.83
2017-08-06T10:07:46.522Z,18.68
2017-08-06T10:08:56.176Z,18.51
2017-08-06T10:10:06.459Z,18.3
2017-08-06T10:11:15.160Z,18.49
2017-08-06T10:12:25.451Z,18.51
2017-08-06T10:13:35.407Z,18.28
2017-08-06T10:14:45.683Z,18.21
2017-08-06T10:15:55.980Z,18.3
2017-08-06T10:17:05.946Z,18.36
2017-08-06T10:18:16.375Z,18.51
2017-08-06T10:19:26.654Z,18.43
2017-08-06T10:20:36.933Z,18.43
2017-08-06T10:21:46.904Z,18.43
2017-08-06T10:22:56.879Z,18.49
2017-08-06T10:24:06.843Z,18.52
2017-08-06T10:25:17.117Z,18.6
2017-08-06T10:26:27.395Z,18.76
2017-08-06T10:27:37.678Z,18.58
2017-08-06T10:28:47.642Z,18.39
2017-08-06T10:29:57.923Z,18.51
2017-08-06T10:31:07.573Z,18.58
2017-08-06T10:32:17.887Z,18.64
2017-08-06T10:33:28.164Z,18.76
2017-08-06T10:34:38.131Z,18.89
2017-08-06T10:35:48.407Z,18.67
2017-08-06T10:36:58.374Z,18.71
2017-08-06T10:38:08.340Z,18.85
2017-08-06T10:39:18.314Z,18.61
2017-08-06T10:40:28.277Z,18.71
2017-08-06T10:41:37.926Z,18.85
2017-08-06T10:42:48.198Z,18.85
2017-08-06T10:43:57.852Z,19.07
2017-08-06T10:45:07.816Z,19.17
2017-08-06T10:46:17.785Z,19.11
2017-08-06T10:47:27.750Z,19.38
2017-08-06T10:48:38.034Z,19.45
2017-08-06T10:49:47.995Z,19.63
2017-08-06T10:50:57.955Z,19.75
2017-08-06T10:52:08.249Z,19.89
2017-08-06T10:53:18.213Z,19.85
2017-08-06T10:54:27.863Z,20
2017-08-06T10:55:38.149Z,19.82
2017-08-06T10:56:48.108Z,19.94
2017-08-06T10:57:57.757Z,19.97
2017-08-06T10:59:08.033Z,19.67
2017-08-06T11:00:17.994Z,19.66
2017-08-06T11:01:27.958Z,19.64
2017-08-06T11:02:37.923Z,19.49
2017-08-06T11:03:47.573Z,19.26
2017-08-06T11:04:57.534Z,19.23
2017-08-06T11:06:07.810Z,19.52
2017-08-06T11:07:18.088Z,19.55
2017-08-06T11:08:27.739Z,19.45
2017-08-06T11:09:38.028Z,19.64
2017-08-06T11:10:48.306Z,19.78
2017-08-06T11:11:58.263Z,19.9
2017-08-06T11:13:07.602Z,20.1
2017-08-06T11:14:17.880Z,20.22
2017-08-06T11:15:28.165Z,20.34
2017-08-06T11:16:38.447Z,20.21
2017-08-06T11:17:48.738Z,19.9
2017-08-06T11:18:58.707Z,19.78
2017-08-06T11:20:08.366Z,19.75
2017-08-06T11:21:18.647Z,19.79
2017-08-06T11:22:28.608Z,19.92
2017-08-06T11:23:38.577Z,20.24
2017-08-06T11:24:48.851Z,20.3
2017-08-06T11:25:59.134Z,20.52
2017-08-06T11:27:09.093Z,20.71
2017-08-06T11:28:19.405Z,20.9
2017-08-06T11:29:29.680Z,21.1
2017-08-06T11:30:39.963Z,21.2
2017-08-06T11:31:50.250Z,21.32
2017-08-06T11:33:00.234Z,21.25
2017-08-06T11:34:10.200Z,21.33
2017-08-06T11:35:20.492Z,21.51
2017-08-06T11:36:30.773Z,21.38
2017-08-06T11:37:41.052Z,21.45
2017-08-06T11:38:51.012Z,21.5
2017-08-06T11:40:01.291Z,21.3
2017-08-06T11:41:11.581Z,21.41
2017-08-06T11:42:21.858Z,21.43
2017-08-06T11:43:32.139Z,21.53
2017-08-06T11:44:42.112Z,21.41
2017-08-06T11:45:51.447Z,21.2
2017-08-06T11:47:01.407Z,21.13
2017-08-06T11:48:11.383Z,21.3
2017-08-06T11:49:21.673Z,21.2
2017-08-06T11:50:31.958Z,21.47
2017-08-06T11:51:41.928Z,21.62
2017-08-06T11:52:52.207Z,21.72
2017-08-06T11:54:01.859Z,21.92
2017-08-06T11:55:12.138Z,22.06
2017-08-06T11:56:22.422Z,22.16
2017-08-06T11:57:32.400Z,22.16
2017-08-06T11:58:42.678Z,22.07
2017-08-06T11:59:52.669Z,22.01
2017-08-06T12:01:02.648Z,22.15
2017-08-06T12:02:12.305Z,22.03
2017-08-06T12:03:22.586Z,22.26
2017-08-06T12:04:32.887Z,22.52
2017-08-06T12:05:42.864Z,22.55
2017-08-06T12:06:52.833Z,22.55
2017-08-06T12:08:02.485Z,22.63
2017-08-06T12:09:12.451Z,22.8
2017-08-06T12:10:22.731Z,23.04
2017-08-06T12:11:33.020Z,23.04
2017-08-06T12:12:42.990Z,23.32
2017-08-06T12:13:52.961Z,23.36
2017-08-06T12:15:02.614Z,23.33
2017-08-06T12:16:12.589Z,23.17
2017-08-06T12:17:22.558Z,23.48
2017-08-06T12:18:32.837Z,23.82
2017-08-06T12:19:42.811Z,23.89
2017-08-06T12:20:52.782Z,23.88
2017-08-06T12:22:02.747Z,24.04
2017-08-06T12:23:13.032Z,23.7
2017-08-06T12:24:22.687Z,23.79
2017-08-06T12:25:32.657Z,23.69
2017-08-06T12:26:42.949Z,23.99
2017-08-06T12:27:53.233Z,24
2017-08-06T12:29:02.888Z,24.24
2017-08-06T12:30:13.176Z,24.24
2017-08-06T12:31:23.466Z,24.22
2017-08-06T12:32:33.760Z,24.01
2017-08-06T12:33:43.766Z,24.03
2017-08-06T12:34:53.741Z,24.22
2017-08-06T12:36:03.710Z,24.51
2017-08-06T12:37:13.999Z,24.81
2017-08-06T12:38:24.283Z,25
2017-08-06T12:39:34.253Z,24.65
2017-08-06T12:40:44.228Z,24.69
2017-08-06T12:41:54.508Z,24.78
2017-08-06T12:43:04.800Z,24.81
2017-08-06T12:44:15.085Z,25.11
2017-08-06T12:45:24.427Z,25.24
2017-08-06T12:46:34.720Z,25.3
2017-08-06T12:47:45.004Z,24.37
2017-08-06T12:48:55.287Z,24.22
2017-08-06T12:50:05.265Z,24.26
2017-08-06T12:51:15.232Z,24.74
2017-08-06T12:52:25.517Z,24.86
2017-08-06T12:53:35.802Z,24.86
2017-08-06T12:54:45.463Z,25.18
2017-08-06T12:55:55.750Z,24.96
2017-08-06T12:57:05.406Z,25.24
2017-08-06T12:58:15.688Z,25.76
2017-08-06T12:59:25.663Z,26.06
2017-08-06T13:00:35.954Z,26.42
2017-08-06T13:01:45.930Z,26.44
2017-08-06T13:02:55.580Z,26.59
2017-08-06T13:04:05.547Z,26.93
2017-08-06T13:05:15.207Z,27.05
2017-08-06T13:06:25.197Z,26.98
2017-08-06T13:07:35.481Z,26.85
2017-08-06T13:08:45.462Z,26.92
2017-08-06T13:09:55.429Z,27.16
2017-08-06T13:11:04.769Z,27.28
2017-08-06T13:12:14.741Z,27.48
2017-08-06T13:13:25.021Z,27.66
2017-08-06T13:14:35.311Z,27.85
2017-08-06T13:15:45.597Z,28.19
2017-08-06T13:16:55.877Z,28.12
2017-08-06T13:18:05.553Z,27.79
2017-08-06T13:19:15.525Z,27.66
2017-08-06T13:20:25.816Z,27.82
2017-08-06T13:21:36.105Z,27.9
2017-08-06T13:22:46.404Z,28.13
2017-08-06T13:23:56.685Z,28.34
2017-08-06T13:25:06.979Z,28.59
2017-08-06T13:26:16.967Z,28.13
2017-08-06T13:27:27.255Z,28.22
2017-08-06T13:28:37.547Z,28.15
2017-08-06T13:29:47.525Z,28.35
2017-08-06T13:30:57.814Z,28.53
2017-08-06T13:32:08.105Z,28.49
2017-08-06T13:33:18.391Z,28.84
2017-08-06T13:34:28.362Z,28.49
2017-08-06T13:35:38.645Z,28.47
2017-08-06T13:36:48.929Z,28.43
2017-08-06T13:37:58.912Z,28.41
2017-08-06T13:39:09.209Z,28.45
2017-08-06T13:40:19.504Z,28.67
2017-08-06T13:41:29.159Z,28.89
2017-08-06T13:42:39.128Z,28.87
2017-08-06T13:43:48.469Z,29.03
2017-08-06T13:44:58.438Z,29.25
2017-08-06T13:46:08.730Z,29.13
2017-08-06T13:47:18.714Z,28.67
2017-08-06T13:48:28.685Z,28.41
2017-08-06T13:49:38.970Z,28.6
2017-08-06T13:50:48.940Z,28.71
2017-08-06T13:51:58.929Z,28.31
2017-08-06T13:53:09.214Z,28.18
2017-08-06T13:54:19.496Z,28.41
2017-08-06T13:55:29.786Z,28.45
2017-08-06T13:56:40.073Z,28.62
2017-08-06T13:57:50.379Z,28.65
2017-08-06T13:59:00.665Z,28.68
2017-08-06T14:00:10.951Z,28.62
2017-08-06T14:01:20.922Z,29.12
2017-08-06T14:02:30.894Z,29.06
2017-08-06T14:03:40.862Z,28.93
2017-08-06T14:04:51.150Z,29.28
2017-08-06T14:06:01.439Z,29.21
2017-08-06T14:07:11.406Z,29.09
2017-08-06T14:08:21.376Z,29.22
2017-08-06T14:09:31.664Z,28.94
2017-08-06T14:10:41.638Z,28.89
2017-08-06T14:11:51.927Z,29.1
2017-08-06T14:13:02.223Z,29.32
2017-08-06T14:14:12.205Z,29.44
2017-08-06T14:15:22.493Z,29.61
2017-08-06T14:16:32.787Z,29.68
2017-08-06T14:17:42.762Z,29.87
2017-08-06T14:18:53.052Z,30.03
2017-08-06T14:20:03.028Z,30.26
2017-08-06T14:21:13.324Z,30.49
2017-08-06T14:22:23.619Z,30.39
2017-08-06T14:23:33.903Z,30.26
2017-08-06T14:24:44.207Z,30.2
2017-08-06T14:25:54.498Z,29.73
2017-08-06T14:27:04.469Z,30.05
2017-08-06T14:28:14.752Z,29.95
2017-08-06T14:29:25.055Z,29.64
2017-08-06T14:30:35.027Z,29.47
2017-08-06T14:31:45.314Z,29.37
2017-08-06T14:32:55.300Z,29.27
2017-08-06T14:34:05.580Z,28.97
2017-08-06T14:35:15.556Z,28.62
2017-08-06T14:36:25.840Z,28.4
2017-08-06T14:37:35.813Z,27.95
2017-08-06T14:38:45.785Z,27.53
2017-08-06T14:39:56.067Z,27.35
2017-08-06T14:41:05.721Z,27.25
2017-08-06T14:42:15.690Z,27.11
2017-08-06T14:43:25.981Z,27
2017-08-06T14:44:36.259Z,26.82
2017-08-06T14:45:46.228Z,26.78
2017-08-06T14:46:56.513Z,26.61
2017-08-06T14:48:06.804Z,26.56
2017-08-06T14:49:17.089Z,26.41
2017-08-06T14:50:27.061Z,26.18
2017-08-06T14:51:37.347Z,26.07
2017-08-06T14:52:47.329Z,25.83
2017-08-06T14:53:57.610Z,25.66
2017-08-06T14:55:07.581Z,25.39
2017-08-06T14:56:17.550Z,25.16
2017-08-06T14:57:27.521Z,25.06
2017-08-06T14:58:37.485Z,24.77
2017-08-06T14:59:47.450Z,24.61
2017-08-06T15:00:57.736Z,24.25
2017-08-06T15:02:08.022Z,23.91
2017-08-06T15:03:18.309Z,23.1
2017-08-06T15:04:28.590Z,22.89
2017-08-06T15:05:38.562Z,22.67
2017-08-06T15:06:48.840Z,22.26